Time;durP1;ratioP1;P1;durP2;ratioP2;P2;SDS_P1;SDS_P2;PMS_P1;PMS_P2;Temp;Humidity;BMP_temperature;BMP_pressure;BME280_temperature;BME280_humidity;BME280_pressure;Samples;Min_cycle;Max_cycle;Signal;HPM_P1;HPM_P2
2021/03/25 00:02:11;;;;;;;85.07;51.38;;;11.10;99.90;;;11.26;66.99;101883.63;5073844;28;20071;-70
2021/03/25 00:04:39;;;;;;;84.35;51.10;;;11.10;99.90;;;11.35;67.25;101900.50;5073711;28;20102;-70
2021/03/25 00:07:06;;;;;;;86.85;52.53;;;11.10;99.90;;;11.32;67.42;101905.78;5073839;28;20101;-70
2021/03/25 00:09:38;;;;;;;93.68;52.15;;;11.00;99.90;;;11.28;67.52;101906.63;5073771;28;20086;-70
2021/03/25 00:12:08;;;;;;;90.38;52.90;;;11.00;99.90;;;11.28;67.56;101905.72;5073727;28;20086;-70
2021/03/25 00:14:36;;;;;;;88.77;51.40;;;11.00;99.90;;;11.28;67.69;101911.03;5073897;28;20107;-70
2021/03/25 00:17:04;;;;;;;99.20;52.67;;;11.00;99.90;;;11.26;67.69;101899.53;5072214;28;20547;-70
2021/03/25 00:19:32;;;;;;;90.00;52.70;;;10.90;99.90;;;11.24;67.77;101906.56;5072479;28;20072;-71
2021/03/25 00:21:59;;;;;;;90.30;52.60;;;10.90;99.90;;;11.20;67.86;101896.81;5073496;28;20563;-70
2021/03/25 00:24:27;;;;;;;91.88;53.80;;;10.90;99.90;;;11.13;68.28;101901.16;5072243;28;20502;-70
2021/03/25 00:26:54;;;;;;;88.18;51.67;;;10.80;99.90;;;11.06;68.41;101904.63;5073350;28;20149;-70
2021/03/25 00:29:23;;;;;;;95.70;53.33;;;10.80;99.90;;;11.06;68.65;101904.63;5073750;28;20051;-70
2021/03/25 00:31:51;;;;;;;91.53;54.30;;;10.80;99.90;;;11.07;68.72;101895.78;5073678;28;20040;-71
2021/03/25 00:34:19;;;;;;;93.80;55.13;;;10.80;99.90;;;11.10;68.71;101898.50;5073477;28;20106;-70
2021/03/25 00:36:47;;;;;;;92.10;54.40;;;10.80;99.90;;;11.10;68.75;101894.94;5073334;28;20044;-70
2021/03/25 00:39:15;;;;;;;88.88;55.75;;;10.80;99.90;;;11.15;68.66;101894.09;5072027;28;20044;-70
2021/03/25 00:41:42;;;;;;;90.35;52.55;;;10.80;99.90;;;11.16;68.72;101895.91;5071964;28;20052;-70
2021/03/25 00:44:13;;;;;;;87.75;54.10;;;10.80;99.90;;;11.16;68.68;101895.91;5071695;28;20493;-70
2021/03/25 00:46:41;;;;;;;89.45;52.90;;;10.80;99.90;;;11.05;68.92;101886.09;5073196;28;20094;-70
2021/03/25 00:49:11;;;;;;;87.43;52.03;;;10.80;99.90;;;11.02;69.23;101886.94;5071570;28;20135;-70
2021/03/25 00:51:38;;;;;;;96.68;54.83;;;10.70;99.90;;;10.93;69.35;101892.13;5073005;28;20056;-71
2021/03/25 00:54:07;;;;;;;95.40;53.92;;;10.70;99.90;;;10.21;70.20;101759.06;5073008;28;20048;-70
2021/03/25 00:56:37;;;;;;;92.43;52.58;;;10.60;99.90;;;10.87;70.68;101886.78;5072819;28;20056;-71
2021/03/25 00:59:04;;;;;;;89.70;51.97;;;10.60;99.90;;;10.87;70.88;101885.03;5071792;28;20079;-71
2021/03/25 01:01:32;;;;;;;95.72;52.33;;;10.60;99.90;;;10.86;70.93;101891.19;5073109;28;20060;-70
2021/03/25 01:04:01;;;;;;;89.20;52.97;;;10.60;99.90;;;10.83;71.24;101885.88;5071782;28;20052;-70
2021/03/25 01:06:28;;;;;;;88.07;51.72;;;10.60;99.90;;;10.87;71.07;101886.78;5072858;28;20063;-70
2021/03/25 01:08:55;;;;;;;97.55;53.40;;;10.50;99.90;;;10.91;71.13;101883.28;5071573;28;20037;-70
2021/03/25 01:11:27;;;;;;;98.13;52.95;;;10.60;99.90;;;10.79;70.73;101849.66;5071322;28;20454;-70
2021/03/25 01:14:01;;;;;;;98.65;53.47;;;10.60;99.90;;;10.98;70.93;101865.69;5072921;28;20036;-71
2021/03/25 01:16:32;;;;;;;90.72;52.92;;;10.60;99.90;;;10.86;70.88;101848.81;5071647;28;20063;-70
2021/03/25 01:19:03;;;;;;;91.70;51.13;;;10.70;99.90;;;10.95;71.21;101877.16;5072763;28;20051;-70
2021/03/25 01:21:31;;;;;;;85.15;48.95;;;10.60;99.90;;;10.75;71.68;101876.06;5088141;28;20080;-70
2021/03/25 01:23:59;;;;;;;82.97;48.75;;;10.50;99.90;;;10.72;71.98;101870.75;5072984;28;20048;-70
2021/03/25 01:26:30;;;;;;;87.20;51.40;;;10.50;99.90;;;10.63;72.05;101867.97;5073089;28;20040;-70
2021/03/25 01:29:00;;;;;;;90.75;50.63;;;10.40;99.90;;;10.54;72.79;101857.28;5071422;28;20106;-70
2021/03/25 01:31:30;;;;;;;88.15;51.35;;;10.40;99.90;;;10.58;73.25;101864.41;5072671;28;20060;-70
2021/03/25 01:34:02;;;;;;;94.15;54.08;;;10.40;99.90;;;10.55;73.47;101864.38;5071215;28;20052;-70
2021/03/25 01:36:30;;;;;;;98.70;54.75;;;10.40;99.90;;;10.53;73.85;101861.69;5071551;28;20045;-70
2021/03/25 01:38:57;;;;;;;93.32;53.75;;;10.40;99.90;;;10.52;73.69;101864.31;5072229;28;20505;-70
2021/03/25 01:41:31;;;;;;;93.95;53.80;;;10.30;99.90;;;10.55;73.72;101861.72;5076779;28;20048;-70
2021/03/25 01:44:02;;;;;;;87.90;52.25;;;10.30;99.90;;;10.56;73.60;101863.50;5075448;28;20466;-71
2021/03/25 01:46:36;;;;;;;88.40;50.85;;;10.30;99.90;;;10.51;73.86;101863.44;5075153;28;20076;-70
2021/03/25 01:49:09;;;;;;;93.13;53.15;;;10.40;99.90;;;10.52;74.38;101862.56;5076774;28;20047;-70
2021/03/25 01:51:53;;;;;;;87.38;51.58;;;10.30;99.90;;;10.48;74.51;101862.50;5075306;28;20045;-70
2021/03/25 01:54:56;;;;;;;96.47;54.08;;;10.10;99.90;;;10.45;74.73;101868.63;5075388;28;20049;-70
2021/03/25 01:57:54;;;;;;;98.53;56.55;;;10.10;99.90;;;9.89;74.65;101746.31;5075239;28;20421;-70
2021/03/25 02:00:36;;;;;;;99.80;54.22;;;10.20;99.90;;;10.72;74.37;101868.09;5075083;28;20048;-70
2021/03/25 02:03:23;;;;;;;96.45;56.75;;;10.40;99.90;;;10.81;74.09;101860.25;5075981;28;20109;-70
2021/03/25 02:06:10;;;;;;;100.38;57.33;;;10.50;99.90;;;10.90;73.98;101852.38;5074831;28;20098;-70
2021/03/25 02:09:06;;;;;;;94.28;55.17;;;10.60;99.90;;;10.95;73.64;101861.28;5075200;28;20052;-70
2021/03/25 02:11:56;;;;;;;103.53;59.28;;;10.60;99.90;;;11.02;73.63;101855.16;5074509;28;20051;-70
2021/03/25 02:14:36;;;;;;;101.93;55.17;;;10.70;99.90;;;10.45;73.36;101739.03;5074934;28;20070;-70
2021/03/25 02:17:12;;;;;;;95.97;56.38;;;10.80;99.90;;;11.16;72.93;101855.28;5074733;28;20048;-70
2021/03/25 02:20:42;;;;;;;94.60;54.78;;;10.80;99.90;;;11.16;73.04;101853.53;5075826;28;20044;-71
2021/03/25 02:23:36;;;;;;;96.35;53.20;;;10.90;99.90;;;11.09;73.31;101835.78;5074591;28;20047;-71
2021/03/25 02:26:08;;;;;;;97.40;54.28;;;10.90;99.90;;;11.22;73.48;101861.53;5074471;28;20076;-70
2021/03/25 02:29:00;;;;;;;93.32;54.72;;;10.90;99.90;;;11.12;73.39;101834.94;5074787;28;20737;-70
2021/03/25 02:31:33;;;;;;;98.70;54.67;;;10.90;99.90;;;11.30;73.11;101854.56;5074448;28;20044;-70
2021/03/25 02:34:08;;;;;;;92.13;53.40;;;10.90;99.90;;;11.28;73.37;101880.13;5075796;28;20048;-70
2021/03/25 02:36:46;;;;;;;90.13;51.83;;;11.00;99.90;;;11.36;72.87;101851.06;5074563;28;20418;-70
2021/03/25 02:39:25;;;;;;;93.68;51.88;;;11.00;99.90;;;11.28;72.86;101828.91;5075715;28;20044;-70
2021/03/25 02:42:19;;;;;;;86.55;49.65;;;11.10;99.90;;;11.43;73.01;101859.06;5074299;28;20071;-70
2021/03/25 02:44:50;;;;;;;85.25;50.05;;;11.00;99.90;;;11.46;72.98;101855.53;5075523;28;20052;-71
2021/03/25 02:47:20;;;;;;;92.82;49.58;;;11.10;99.90;;;11.43;73.07;101861.72;5074045;28;20036;-70
2021/03/25 02:49:57;;;;;;;90.75;49.67;;;11.10;99.90;;;11.43;73.19;101859.06;5075532;28;20033;-70
2021/03/25 02:52:32;;;;;;;90.95;48.92;;;11.10;99.90;;;11.38;73.64;101855.47;5074120;28;20078;-70
2021/03/25 02:55:08;;;;;;;86.85;48.45;;;11.00;99.90;;;10.58;73.98;101729.47;5074126;28;20072;-70
2021/03/25 02:57:46;;;;;;;90.80;50.88;;;11.00;99.90;;;11.17;74.00;101831.47;5073724;28;20045;-70
2021/03/25 03:00:28;;;;;;;93.20;49.42;;;11.00;99.90;;;11.25;74.57;101856.25;5074020;28;20076;-70
2021/03/25 03:03:02;;;;;;;96.80;50.83;;;10.90;99.90;;;10.57;74.55;101733.88;5074108;28;20470;-70
2021/03/25 03:05:53;;;;;;;90.93;48.63;;;11.00;99.90;;;11.29;74.47;101847.47;5075123;28;20137;-70
2021/03/25 03:08:28;;;;;;;85.80;48.08;;;10.90;99.90;;;11.34;74.26;101847.50;5073756;28;20106;-70
2021/03/25 03:11:00;;;;;;;87.55;48.08;;;11.00;99.90;;;11.37;74.25;101879.31;5074960;28;20094;-70
2021/03/25 03:13:33;;;;;;;92.13;51.90;;;11.00;99.90;;;11.31;74.40;101836.88;5074961;28;20098;-70
2021/03/25 03:16:08;;;;;;;92.65;51.67;;;11.00;99.90;;;11.37;74.31;101848.41;5073569;28;20056;-70
2021/03/25 03:18:46;;;;;;;87.60;49.92;;;11.00;99.90;;;11.38;74.44;101844.88;5073824;28;20092;-70
2021/03/25 03:21:24;;;;;;;98.47;50.92;;;11.00;99.90;;;11.42;74.41;101838.72;5074956;28;20464;-70
2021/03/25 03:24:01;;;;;;;97.10;51.97;;;11.10;99.90;;;11.39;74.63;101835.19;5074819;28;20127;-70
2021/03/25 03:26:52;;;;;;;89.00;50.30;;;11.10;99.90;;;11.40;74.75;101843.13;5073475;28;20075;-70
2021/03/25 03:29:23;;;;;;;87.00;49.47;;;11.00;99.90;;;11.40;74.95;101839.63;5073572;28;20052;-70
2021/03/25 03:31:56;;;;;;;92.40;51.22;;;11.10;99.90;;;11.41;75.07;101841.38;5074780;28;20036;-70
2021/03/25 03:34:47;;;;;;;95.90;52.05;;;11.10;99.90;;;11.42;75.20;101830.78;5073480;28;20052;-70
2021/03/25 03:37:23;;;;;;;86.18;49.10;;;11.10;99.90;;;11.42;75.40;101841.38;5073308;28;20044;-70
2021/03/25 03:39:57;;;;;;;94.63;53.75;;;11.10;99.90;;;11.38;75.34;101834.28;5073510;28;20052;-70
2021/03/25 03:42:40;;;;;;;91.05;53.20;;;11.00;99.90;;;11.34;75.40;101827.19;5073223;28;20053;-70
2021/03/25 03:45:13;;;;;;;95.60;51.55;;;11.00;99.90;;;11.35;75.52;101836.91;5073202;28;20055;-71
2021/03/25 03:47:46;;;;;;;90.50;50.83;;;11.10;99.90;;;11.31;75.69;101834.22;5072834;28;20519;-70
2021/03/25 03:50:22;;;;;;;97.70;54.80;;;11.00;99.90;;;11.27;75.85;101833.31;5073191;28;20055;-70
2021/03/25 03:52:51;;;;;;;91.90;51.30;;;11.00;99.90;;;10.48;76.29;101703.81;5073104;28;20118;-70
2021/03/25 03:55:21;;;;;;;99.05;51.80;;;11.00;99.90;;;11.01;77.01;101816.34;5072892;28;20052;-70
2021/03/25 03:58:05;;;;;;;96.07;52.67;;;10.80;99.90;;;11.00;77.17;101821.59;5072730;28;20098;-70
2021/03/25 04:00:37;;;;;;;100.45;52.10;;;10.70;99.90;;;11.05;77.22;101831.38;5073045;28;20072;-71
2021/03/25 04:03:20;;;;;;;91.55;51.33;;;10.70;99.90;;;10.97;77.14;101811.88;5072398;28;20139;-70
2021/03/25 04:06:17;;;;;;;94.20;52.65;;;10.70;99.90;;;10.67;76.81;101751.63;5073507;28;20056;-70
2021/03/25 04:09:15;;;;;;;91.57;51.05;;;10.80;99.90;;;11.11;77.10;101835.84;5072627;28;20036;-71
2021/03/25 04:11:52;;;;;;;98.07;52.50;;;10.80;99.90;;;11.18;76.87;101838.56;5072706;28;20405;-70
2021/03/25 04:14:27;;;;;;;89.68;50.05;;;10.80;99.90;;;11.24;76.70;101832.41;5072653;28;20048;-70
2021/03/25 04:17:11;;;;;;;97.60;52.85;;;10.90;99.90;;;11.29;76.35;101833.31;5072345;28;20049;-70
2021/03/25 04:19:45;;;;;;;92.40;52.92;;;11.00;99.90;;;11.35;76.22;101838.69;5072485;28;20051;-70
2021/03/25 04:22:38;;;;;;;96.45;53.25;;;11.00;99.90;;;11.24;76.38;101819.16;5073660;28;20926;-70
2021/03/25 04:25:11;;;;;;;87.78;51.70;;;11.00;99.90;;;11.24;76.65;101829.75;5073476;28;20467;-70
2021/03/25 04:27:43;;;;;;;81.53;49.38;;;11.00;99.90;;;11.07;76.74;101824.31;5073401;28;20447;-70
2021/03/25 04:30:16;;;;;;;90.13;51.45;;;10.70;99.90;;;10.80;77.54;101779.94;5072258;28;20098;-70
2021/03/25 04:32:44;;;;;;;92.70;53.25;;;10.60;99.90;;;10.93;77.76;101818.03;5073545;28;20047;-70
2021/03/25 04:35:13;;;;;;;96.95;52.53;;;10.50;99.90;;;10.91;78.30;101814.47;5073226;28;20053;-70
2021/03/25 04:37:42;;;;;;;96.72;54.38;;;10.50;99.90;;;10.85;78.29;101809.13;5073160;28;20040;-70
2021/03/25 04:40:17;;;;;;;97.53;54.38;;;10.50;99.90;;;10.52;79.34;101801.72;5073182;28;20047;-70
2021/03/25 04:42:46;;;;;;;95.45;53.30;;;10.20;99.90;;;10.30;80.82;101801.50;5073377;28;20063;-70
2021/03/25 04:45:27;;;;;;;97.28;54.40;;;10.00;99.90;;;10.40;80.46;101787.47;5073072;28;20052;-70
2021/03/25 04:47:59;;;;;;;97.10;54.65;;;10.10;99.90;;;10.62;79.71;101815.94;5073005;28;20481;-70
2021/03/25 04:50:31;;;;;;;100.25;55.90;;;10.30;99.90;;;10.73;79.47;101816.94;5072945;28;20505;-70
2021/03/25 04:53:06;;;;;;;103.30;54.58;;;10.40;99.90;;;10.84;79.00;101823.22;5073249;28;20048;-70
2021/03/25 04:55:36;;;;;;;95.70;54.58;;;10.50;99.90;;;10.93;78.37;101812.72;5073055;28;20091;-70
2021/03/25 04:58:09;;;;;;;101.53;56.33;;;10.60;99.90;;;10.95;78.30;101805.69;5072975;28;20044;-70
2021/03/25 05:00:39;;;;;;;92.82;53.35;;;10.60;99.90;;;11.00;77.87;101814.53;5072874;28;20044;-70
2021/03/25 05:03:11;;;;;;;90.18;54.15;;;10.70;99.90;;;11.07;77.76;101808.41;5073155;28;20511;-70
2021/03/25 05:05:40;;;;;;;96.57;54.85;;;10.70;99.90;;;11.13;77.76;101816.41;5071510;28;20052;-70
2021/03/25 05:08:14;;;;;;;97.05;54.83;;;10.80;99.90;;;11.16;77.36;101816.47;5071637;28;20048;-74
2021/03/25 05:10:46;;;;;;;88.18;53.78;;;10.90;99.90;;;11.03;77.22;101789.88;5072674;28;20048;-78
2021/03/25 05:13:26;;;;;;;91.93;53.65;;;10.80;99.90;;;11.17;77.24;101815.56;5072011;28;20115;-73
2021/03/25 05:16:14;;;;;;;99.50;54.72;;;10.80;99.90;;;11.12;77.22;101822.59;5073175;28;20072;-74
2021/03/25 05:18:52;;;;;;;92.25;53.03;;;10.80;99.90;;;11.08;77.11;101802.28;5072740;28;20386;-73
2021/03/25 05:21:28;;;;;;;97.25;53.42;;;10.80;99.90;;;10.72;76.95;101733.16;5072677;28;20056;-70
2021/03/25 05:24:04;;;;;;;93.97;53.28;;;10.90;99.90;;;11.17;76.64;101812.94;5072778;28;20043;-72
2021/03/25 05:26:40;;;;;;;93.93;54.15;;;10.80;99.90;;;11.01;76.78;101788.97;5072759;28;20056;-73
2021/03/25 05:29:09;;;;;;;95.22;53.47;;;10.90;99.90;;;11.20;76.59;101818.25;5072515;28;20051;-73
2021/03/25 05:31:39;;;;;;;91.30;53.33;;;10.90;99.90;;;11.20;76.64;101810.31;5072476;28;20086;-73
2021/03/25 05:34:09;;;;;;;86.80;52.25;;;10.90;99.90;;;11.20;76.48;101812.06;5072464;28;20124;-72
2021/03/25 05:36:37;;;;;;;87.30;51.53;;;10.90;99.90;;;11.12;76.47;101811.13;5072625;28;20032;-73
2021/03/25 05:39:10;;;;;;;89.30;52.35;;;10.90;99.90;;;11.16;76.65;101815.56;5072564;28;20041;-73
2021/03/25 05:41:53;;;;;;;89.97;51.70;;;10.80;99.90;;;11.20;76.88;101820.91;5072421;28;20064;-72
2021/03/25 05:45:20;;;;;;;96.38;51.72;;;10.80;99.90;;;11.24;76.91;101809.47;5072399;28;20040;-74
2021/03/25 05:48:11;;;;;;;90.65;53.03;;;10.80;99.90;;;11.28;76.77;101810.38;5072701;28;20375;-74
2021/03/25 05:50:49;;;;;;;86.60;50.42;;;10.90;99.90;;;11.30;76.80;101806.88;5072208;28;20068;-74
2021/03/25 05:53:30;;;;;;;92.60;53.03;;;10.90;99.90;;;11.32;76.58;101807.78;5072396;28;20395;-73
2021/03/25 05:56:13;;;;;;;;;;;11.00;99.90;;;11.16;76.53;101789.09;5071575;28;20052;-74
2021/03/25 05:58:46;;;;;;;85.63;49.80;;;11.00;99.90;;;11.23;76.69;101834.16;5070960;28;19927;-74
2021/03/25 06:01:57;;;;;;;81.97;50.13;;;11.00;99.90;;;11.15;76.65;101796.13;5072256;28;20055;-73
2021/03/25 06:04:29;;;;;;;89.03;51.13;;;11.00;99.90;;;11.37;76.37;101826.34;5070854;28;20076;-74
2021/03/25 06:07:09;;;;;;;89.95;51.22;;;11.00;99.90;;;11.37;76.43;101827.22;5072184;28;20490;-73
2021/03/25 06:10:01;;;;;;;84.15;49.05;;;11.00;99.90;;;11.32;76.53;101821.03;5072118;28;20084;-74
2021/03/25 06:12:51;;;;;;;89.43;49.50;;;11.00;99.90;;;11.34;76.56;101823.69;5072132;28;20041;-74
2021/03/25 06:15:42;;;;;;;83.75;50.65;;;11.00;99.90;;;11.33;76.99;101821.88;5072115;28;20036;-74
2021/03/25 06:18:27;;;;;;;82.10;49.22;;;11.10;99.90;;;11.34;76.97;101829.84;5072235;28;20059;-74
2021/03/25 06:21:04;;;;;;;83.38;49.13;;;11.00;99.90;;;10.98;76.88;101738.63;5072157;28;20094;-74
2021/03/25 06:23:50;;;;;;;89.25;50.15;;;11.10;99.90;;;11.51;77.00;101836.16;5072064;28;20055;-74
2021/03/25 06:26:30;;;;;;;84.20;49.47;;;11.10;99.90;;;11.52;77.10;101832.63;5074912;28;20052;-74
2021/03/25 06:29:05;;;;;;;84.03;49.50;;;11.10;99.90;;;11.47;77.56;101829.06;5076008;28;20044;-74
2021/03/25 06:31:52;;;;;;;81.00;50.15;;;11.10;99.90;;;11.35;77.95;101823.69;5075535;28;20041;-74
2021/03/25 06:34:28;;;;;;;89.43;50.78;;;11.00;99.90;;;11.23;78.77;101838.56;5075617;28;20044;-74
2021/03/25 06:37:05;;;;;;;87.82;51.17;;;10.90;99.90;;;11.26;78.96;101825.38;5076055;28;20120;-74
2021/03/25 06:39:41;;;;;;;81.82;51.80;;;10.80;99.90;;;11.32;78.98;101834.25;5075562;28;20049;-73
2021/03/25 06:42:21;;;;;;;85.28;52.03;;;10.90;99.90;;;11.17;79.31;101836.75;5075349;28;20057;-74
2021/03/25 06:45:21;;;;;;;94.50;52.20;;;10.90;99.90;;;11.03;80.11;101849.00;5075618;28;20044;-74
2021/03/25 06:47:55;;;;;;;91.20;51.60;;;10.70;99.90;;;11.13;80.13;101853.50;5075404;28;20036;-74
2021/03/25 06:50:31;;;;;;;86.05;51.47;;;10.80;99.90;;;11.07;80.61;101853.44;5075460;28;20055;-74
2021/03/25 06:53:11;;;;;;;92.30;51.10;;;10.70;99.90;;;10.99;80.46;101818.09;5075341;28;20082;-74
2021/03/25 06:55:39;;;;;;;100.72;55.35;;;10.80;99.90;;;11.05;80.57;101846.38;5074172;28;20044;-74
2021/03/25 06:58:16;;;;;;;86.65;51.83;;;10.70;99.90;;;11.13;80.84;101836.75;5075369;28;20090;-74
2021/03/25 07:00:54;;;;;;;86.25;52.40;;;10.70;99.90;;;11.18;80.71;101842.94;5075206;28;20044;-74
2021/03/25 07:03:23;;;;;;;92.68;52.70;;;10.80;99.90;;;11.23;80.65;101843.88;5075359;28;20048;-74
2021/03/25 07:05:53;;;;;;;91.20;52.67;;;10.80;99.90;;;11.27;80.82;101838.63;5075216;28;20078;-74
2021/03/25 07:08:24;;;;;;;89.55;53.83;;;10.90;99.90;;;11.25;80.62;101842.13;5075213;28;20048;-74
2021/03/25 07:10:54;;;;;;;91.68;53.08;;;10.90;99.90;;;11.24;80.85;101857.16;5074959;28;20371;-74
2021/03/25 07:13:33;;;;;;;88.85;52.28;;;10.90;99.90;;;11.22;81.12;101853.59;5074844;28;20586;-74
2021/03/25 07:16:02;;;;;;;100.47;52.70;;;10.80;99.90;;;11.24;81.17;101859.78;5074833;28;20052;-74
2021/03/25 07:18:36;;;;;;;92.85;53.72;;;10.90;99.90;;;11.26;81.16;101862.44;5075068;28;20064;-74
2021/03/25 07:21:36;;;;;;;92.05;53.72;;;10.90;99.90;;;11.30;81.24;101851.91;5074619;28;20559;-74
2021/03/25 07:24:08;;;;;;;88.95;53.13;;;11.00;99.90;;;11.27;81.35;101857.16;5074520;28;20127;-75
2021/03/25 07:26:40;;;;;;;94.47;54.22;;;10.90;99.90;;;11.28;81.62;101861.59;5074544;28;20033;-74
2021/03/25 07:29:26;;;;;;;92.95;53.45;;;10.90;99.90;;;11.10;81.64;101836.69;5074907;28;20102;-74
2021/03/25 07:32:14;;;;;;;91.10;54.33;;;10.90;99.90;;;11.15;81.64;101851.75;5074193;28;20049;-74
2021/03/25 07:34:45;;;;;;;83.57;53.65;;;10.90;99.90;;;11.11;81.81;101842.00;5074532;28;20083;-74
2021/03/25 07:37:16;;;;;;;89.18;53.00;;;11.00;99.90;;;11.32;81.97;101874.00;5073675;28;20071;-74
2021/03/25 07:39:49;;;;;;;;;;;11.00;99.90;;;11.26;82.08;101866.00;5074709;28;20036;-74
2021/03/25 07:42:27;;;;;;;87.10;51.88;;;11.00;99.90;;;11.37;82.28;101876.66;5074029;28;20015;-75
2021/03/25 07:45:33;;;;;;;85.45;50.80;;;11.00;99.90;;;11.40;82.06;101876.72;5074015;28;20446;-74
2021/03/25 07:48:23;;;;;;;91.28;53.67;;;11.00;99.90;;;11.43;82.33;101884.66;5074429;28;20059;-74
2021/03/25 07:51:08;;;;;;;82.30;50.75;;;11.00;99.90;;;11.43;82.26;101885.56;5074356;28;20047;-74
2021/03/25 07:53:36;;;;;;;84.78;50.17;;;11.00;99.90;;;11.45;82.43;101888.22;5074027;28;20082;-74
2021/03/25 07:56:09;;;;;;;80.47;50.00;;;11.10;99.90;;;11.45;82.36;101881.16;5074113;28;20053;-74
2021/03/25 07:58:40;;;;;;;82.80;49.20;;;11.10;99.90;;;11.45;82.57;101882.91;5074338;28;20405;-75
2021/03/25 08:01:13;;;;;;;78.88;48.80;;;11.10;99.90;;;11.29;82.80;101867.75;5074111;28;20516;-75
2021/03/25 08:03:46;;;;;;;80.53;48.33;;;11.10;99.90;;;11.17;83.09;101847.34;5073903;28;20478;-75
2021/03/25 08:06:26;;;;;;;70.05;44.72;;;11.00;99.90;;;11.38;83.32;101883.75;5074015;28;20049;-75
2021/03/25 08:09:04;;;;;;;73.68;48.55;;;11.00;99.90;;;11.36;83.70;101885.50;5073962;28;20045;-75
2021/03/25 08:11:34;;;;;;;67.75;44.15;;;11.00;99.90;;;11.45;83.86;101891.75;5072530;28;20048;-74
2021/03/25 08:14:15;;;;;;;71.13;44.88;;;11.00;99.90;;;11.48;83.75;101890.88;5073900;28;20056;-74
2021/03/25 08:16:46;;;;;;;70.32;42.10;;;11.20;99.90;;;11.38;83.86;101875.81;5073597;28;20525;-75
2021/03/25 08:19:34;;;;;;;59.97;38.45;;;11.20;99.90;;;11.48;84.27;101894.41;5073809;28;20055;-75
2021/03/25 08:22:23;;;;;;;59.05;38.58;;;11.10;99.90;;;11.47;84.02;101887.38;5072414;28;20059;-74
2021/03/25 08:25:28;;;;;;;57.65;39.17;;;11.20;99.90;;;11.63;83.94;101889.22;5073485;28;20379;-75
2021/03/25 08:28:03;;;;;;;58.78;38.25;;;11.20;99.90;;;11.63;84.08;101891.88;5073421;28;20059;-74
2021/03/25 08:31:06;;;;;;;52.75;36.67;;;11.30;99.90;;;11.69;83.94;101889.31;5073505;28;20120;-74
2021/03/25 08:33:59;;;;;;;53.55;34.70;;;11.30;99.90;;;11.65;84.05;101894.56;5073583;28;20068;-74
2021/03/25 08:36:42;;;;;;;52.97;35.25;;;11.30;99.90;;;11.61;84.30;101896.28;5073609;28;20043;-74
2021/03/25 08:39:28;;;;;;;51.55;34.35;;;11.20;99.90;;;11.55;84.40;101890.06;5073424;28;20131;-74
2021/03/25 08:42:03;;;;;;;52.67;33.35;;;11.20;99.90;;;11.47;84.82;101894.41;5073489;28;20040;-74
2021/03/25 08:44:38;;;;;;;54.78;34.08;;;11.10;99.90;;;11.52;84.95;101895.31;5073356;28;20057;-74
2021/03/25 08:47:34;;;;;;;58.33;34.40;;;11.10;99.90;;;11.43;84.98;101888.22;5073199;28;20068;-74
2021/03/25 08:50:20;;;;;;;55.22;34.55;;;11.20;99.90;;;11.49;85.01;101896.22;5071665;28;20057;-74
2021/03/25 08:52:49;;;;;;;57.05;34.88;;;11.10;99.90;;;11.36;85.40;101883.72;5072889;28;20032;-74
2021/03/25 08:55:29;;;;;;;61.22;36.20;;;11.10;99.90;;;11.21;85.66;101883.59;5071703;28;20041;-74
2021/03/25 08:58:02;;;;;;;64.22;36.97;;;10.90;99.90;;;11.06;86.23;101862.25;5072996;28;20090;-74
2021/03/25 09:00:34;;;;;;;58.83;35.92;;;10.90;99.90;;;11.28;86.52;101892.47;5072729;28;20064;-74
2021/03/25 09:03:08;;;;;;;59.72;35.42;;;10.90;99.90;;;11.20;86.23;101867.69;5072908;28;20058;-74
2021/03/25 09:05:40;;;;;;;55.65;34.35;;;11.00;99.90;;;11.31;86.22;101890.75;5071742;28;20056;-74
2021/03/25 09:08:15;;;;;;;55.35;34.40;;;11.00;99.90;;;11.39;86.28;101901.41;5072994;28;20051;-72
2021/03/25 09:10:47;;;;;;;58.83;35.35;;;11.00;99.90;;;11.46;86.04;101901.47;5072604;28;20044;-74
2021/03/25 09:13:18;;;;;;;63.65;38.03;;;11.10;99.90;;;11.32;86.37;101895.19;5072765;28;20048;-73
2021/03/25 09:15:46;;;;;;;65.93;40.55;;;11.00;99.90;;;11.36;86.52;101896.97;5071555;28;20060;-74
2021/03/25 09:18:18;;;;;;;69.47;40.03;;;11.00;99.90;;;11.37;86.39;101898.75;5071593;28;20051;-74
2021/03/25 09:20:50;;;;;;;71.88;42.25;;;11.00;99.90;;;11.38;86.40;101897.00;5072705;28;20048;-73
2021/03/25 09:24:11;;;;;;;76.65;42.38;;;11.00;99.90;;;11.37;86.29;101893.44;5072552;28;20036;-73
2021/03/25 09:27:05;;;;;;;80.75;42.97;;;11.10;99.90;;;10.75;86.63;101812.53;5072635;28;20071;-73
2021/03/25 09:30:30;;;;;;;76.47;41.75;;;11.00;99.90;;;11.34;86.72;101908.44;5072904;28;20064;-74
2021/03/25 09:33:37;;;;;;;88.85;47.33;;;10.90;99.90;;;11.32;86.61;101903.13;5059719;28;20041;-74
2021/03/25 09:36:40;;;;;;;87.75;45.83;;;11.00;99.90;;;11.21;86.73;101887.97;5072561;28;20048;-74
2021/03/25 09:39:26;;;;;;;84.43;44.30;;;10.90;99.90;;;11.24;87.23;101893.31;5072652;28;20037;-74
2021/03/25 09:41:56;;;;;;;89.35;45.08;;;10.90;99.90;;;11.15;87.27;101901.19;5072462;28;20044;-75
2021/03/25 09:44:43;;;;;;;83.60;46.35;;;10.90;99.90;;;11.23;87.39;101894.19;5072551;28;20047;-74
2021/03/25 09:47:21;;;;;;;85.07;45.10;;;11.00;99.90;;;11.27;87.28;101888.03;5072468;28;20037;-74
2021/03/25 09:49:54;;;;;;;87.05;46.15;;;10.90;99.90;;;11.23;87.24;101891.53;5071100;28;20044;-75
2021/03/25 09:52:36;;;;;;;90.88;45.85;;;10.90;99.90;;;11.19;87.27;101890.63;5072730;28;20401;-74
2021/03/25 09:55:25;;;;;;;83.03;43.63;;;10.90;99.90;;;11.26;87.37;101865.09;5072282;28;20512;-74
2021/03/25 09:57:54;;;;;;;79.10;45.60;;;11.00;99.90;;;11.40;87.28;101892.59;5072484;28;20530;-74
2021/03/25 10:01:06;;;;;;;84.03;44.22;;;11.10;99.90;;;11.45;87.04;101894.41;5073912;28;20036;-74
2021/03/25 10:04:25;;;;;;;80.85;42.33;;;11.10;99.90;;;11.58;86.93;101892.72;5067022;28;20053;-74
2021/03/25 10:07:05;;;;;;;87.32;41.63;;;11.20;99.90;;;11.58;86.62;101890.97;5076327;28;20051;-74
2021/03/25 10:10:04;;;;;;;77.55;41.97;;;11.30;99.90;;;11.53;86.25;101886.53;5075894;28;20493;-75
2021/03/25 10:13:13;;;;;;;80.85;41.55;;;11.30;99.90;;;11.45;86.26;101889.13;5075838;28;20106;-73
2021/03/25 10:15:52;;;;;;;80.75;43.55;;;11.20;99.90;;;11.54;86.17;101897.13;5075893;28;20421;-74
2021/03/25 10:18:57;;;;;;;74.35;40.50;;;11.20;99.90;;;11.55;86.17;101896.25;5075953;28;20044;-75
2021/03/25 10:21:56;;;;;;;85.30;43.40;;;11.20;99.90;;;11.48;86.21;101918.25;5074703;28;20052;-74
2021/03/25 10:24:29;;;;;;;79.22;40.95;;;11.20;99.90;;;11.38;85.91;101881.97;5075392;28;20114;-74
2021/03/25 10:27:13;;;;;;;77.63;41.17;;;11.20;99.90;;;11.61;85.64;101901.59;5075731;28;20481;-74
2021/03/25 10:29:40;;;;;;;76.95;42.60;;;11.30;99.90;;;11.70;85.61;101907.00;5075693;28;20047;-74
2021/03/25 10:32:17;;;;;;;66.63;37.20;;;11.40;99.90;;;11.71;84.87;101903.47;5075495;28;20146;-74
2021/03/25 10:34:49;;;;;;;66.05;37.33;;;11.40;99.90;;;11.70;84.65;101909.66;5075771;28;20454;-74
2021/03/25 10:37:29;;;;;;;;;;;11.40;99.90;;;11.79;84.56;101901.75;5076021;28;20044;-74
2021/03/25 10:40:08;;;;;;;64.85;35.53;;;11.50;99.90;;;11.63;84.24;101861.88;5075586;28;19926;-74
2021/03/25 10:42:39;;;;;;;52.83;31.60;;;11.60;99.90;;;11.75;83.21;101889.38;5075461;28;20041;-74
2021/03/25 10:45:22;;;;;;;55.50;32.33;;;11.60;99.90;;;12.07;82.69;101907.25;5075334;28;20513;-74
2021/03/25 10:47:57;;;;;;;49.90;30.67;;;11.70;99.90;;;12.17;81.21;101896.72;5075598;28;20036;-74